map of KTTS home
KTTS - Airport
Location
City:  Titusville, Florida, United States
Name:NASA Shuttle Landing Facility Airport
ICAO:KTTS
FAA LID:TTS

Details
Type:Airport (Airfield)
Use:Private
Latitude:2836'54"N (28.614889)
Longitude:8041'40"W (-80.694360)
Datum:WGS 1984
Elevation:8 ft (2 m)
Variation:6.86W (WMM2015v2 magnetic declination)
-0.06 annual change
Runways:1
Longest:15001 × 300 ft (4572 × 91.5 m), paved

Time
Time Zone:UTC-5 (DST-4)
Local Time:

Weather
METAR:KTTS 041356Z AUTO 01006KT 10SM OVC013 16/13 A3008 RMK AO2 SLP190 T01550130 $

Related Locations
Nearby:
Farthest:USL: 11564 mi / 18610 km
Useless Loop, WA, AU

Find:

   beyond  
but within

Other Information
Maps:
NOTAMs:
Links:
Sources:

  
  • flag of United States
  • flag of Florida
  

Sectional Chart

Flight Planning
at skyvector.com

Satellite Image

Google Maps Satellite view

 

Copyright © 2004-2019 Karl L. Swartz. All rights reserved.
The Great Circle Mapper name and logo are trademarks of the Great Circle Mapper.
All other trademarks mentioned herein belong to their respective owners.
Please see credits for attibutions and further copyright information.

  Follow gcmap on Facebook Follow gcmap on Twitter GCmap on LinkedIn

hCard Microformat

Geo Microformat